createdAt,value
2017-10-09T00:00:16.584Z,8.5
2017-10-09T00:01:17.977Z,8.5
2017-10-09T00:02:39.515Z,8.5
2017-10-09T00:03:40.910Z,8.5
2017-10-09T00:05:02.466Z,8.4
2017-10-09T00:06:03.863Z,8.4
2017-10-09T00:07:25.436Z,8.4
2017-10-09T00:08:26.832Z,8.3
2017-10-09T00:09:48.370Z,8.3
2017-10-09T00:10:49.765Z,8.3
2017-10-09T00:12:11.848Z,8.3
2017-10-09T00:13:13.243Z,8.3
2017-10-09T00:14:34.785Z,8.4
2017-10-09T00:15:36.181Z,8.3
2017-10-09T00:16:58.263Z,8.3
2017-10-09T00:17:59.660Z,8.3
2017-10-09T00:19:21.711Z,8.3
2017-10-09T00:20:23.106Z,8.3
2017-10-09T00:21:45.189Z,8.3
2017-10-09T00:22:46.586Z,8.3
2017-10-09T00:24:08.122Z,8.4
2017-10-09T00:25:09.519Z,8.3
2017-10-09T00:26:31.090Z,8.4
2017-10-09T00:27:32.488Z,8.4
2017-10-09T00:28:55.561Z,8.4
2017-10-09T00:29:56.956Z,8.3
2017-10-09T00:31:18.529Z,8.3
2017-10-09T00:32:19.925Z,8.3
2017-10-09T00:33:41.483Z,8.3
2017-10-09T00:34:42.857Z,8.4
2017-10-09T00:36:04.431Z,8.3
2017-10-09T00:37:05.827Z,8.3
2017-10-09T00:38:27.371Z,8.3
2017-10-09T00:39:28.761Z,8.3
2017-10-09T00:40:50.331Z,8.3
2017-10-09T00:41:51.727Z,8.3
2017-10-09T00:43:13.266Z,8.3
2017-10-09T00:44:14.661Z,8.2
2017-10-09T00:45:36.235Z,8.3
2017-10-09T00:46:37.630Z,8.2
2017-10-09T00:47:59.167Z,8.3
2017-10-09T00:49:00.562Z,8.4
2017-10-09T00:50:22.116Z,8.3
2017-10-09T00:51:23.513Z,8.3
2017-10-09T00:52:45.085Z,8.3
2017-10-09T00:53:46.482Z,8.3
2017-10-09T00:55:08.021Z,8.4
2017-10-09T00:56:09.415Z,8.3
2017-10-09T00:57:30.988Z,8.3
2017-10-09T00:58:32.384Z,8.3
2017-10-09T00:59:53.924Z,8.4
2017-10-09T01:00:55.317Z,8.4
2017-10-09T01:02:16.889Z,8.5
2017-10-09T01:03:18.286Z,8.5
2017-10-09T01:04:39.824Z,8.4
2017-10-09T01:05:41.221Z,8.5
2017-10-09T01:07:02.792Z,8.6
2017-10-09T01:08:04.188Z,8.4
2017-10-09T01:09:26.239Z,8.5
2017-10-09T01:10:27.635Z,8.5
2017-10-09T01:11:49.210Z,8.5
2017-10-09T01:12:50.609Z,8.6
2017-10-09T01:14:12.135Z,8.6
2017-10-09T01:15:13.535Z,8.6
2017-10-09T01:16:35.105Z,8.6
2017-10-09T01:17:36.503Z,8.6
2017-10-09T01:18:58.038Z,8.6
2017-10-09T01:19:59.434Z,8.7
2017-10-09T01:21:21.010Z,8.6
2017-10-09T01:22:22.405Z,8.7
2017-10-09T01:23:43.941Z,8.7
2017-10-09T01:24:45.337Z,8.7
2017-10-09T01:26:06.908Z,8.7
2017-10-09T01:27:08.305Z,8.8
2017-10-09T01:28:29.843Z,8.8
2017-10-09T01:29:31.238Z,8.8
2017-10-09T01:30:52.826Z,8.8
2017-10-09T01:31:54.223Z,8.8
2017-10-09T01:33:16.254Z,8.8
2017-10-09T01:34:17.650Z,8.8
2017-10-09T01:35:39.205Z,8.9
2017-10-09T01:36:40.604Z,8.8
2017-10-09T01:38:02.109Z,8.8
2017-10-09T01:39:03.510Z,8.8
2017-10-09T01:40:25.003Z,8.7
2017-10-09T01:41:26.404Z,8.7
2017-10-09T01:42:48.487Z,8.8
2017-10-09T01:43:49.883Z,8.8
2017-10-09T01:45:11.419Z,8.8
2017-10-09T01:46:12.819Z,8.8
2017-10-09T01:47:34.387Z,8.9
2017-10-09T01:48:35.786Z,9.0
2017-10-09T01:49:57.320Z,9.0
2017-10-09T01:50:58.718Z,8.9
2017-10-09T01:52:20.291Z,9.0
2017-10-09T01:53:21.688Z,9.0
2017-10-09T01:54:43.222Z,9.0
2017-10-09T01:55:44.619Z,8.9
2017-10-09T01:57:06.197Z,9.0
2017-10-09T01:58:07.588Z,9.0
2017-10-09T01:59:29.125Z,9.0
2017-10-09T02:00:30.522Z,9.0
2017-10-09T02:01:52.095Z,9.0
2017-10-09T02:02:53.492Z,9.1
2017-10-09T02:04:15.026Z,9.1
2017-10-09T02:05:16.421Z,9.1
2017-10-09T02:06:37.993Z,9.1
2017-10-09T02:07:39.391Z,9.1
2017-10-09T02:09:00.930Z,9.2
2017-10-09T02:10:02.326Z,9.2
2017-10-09T02:11:23.898Z,9.1
2017-10-09T02:12:25.293Z,9.2
2017-10-09T02:13:46.831Z,9.3
2017-10-09T02:14:48.228Z,9.2
2017-10-09T02:16:09.781Z,9.4
2017-10-09T02:17:11.179Z,9.3
2017-10-09T02:18:32.748Z,9.4
2017-10-09T02:19:34.147Z,9.4
2017-10-09T02:20:55.683Z,9.4
2017-10-09T02:21:57.079Z,9.4
2017-10-09T02:23:18.654Z,9.5
2017-10-09T02:24:20.050Z,9.4
2017-10-09T02:25:41.585Z,9.4
2017-10-09T02:26:42.982Z,9.5
2017-10-09T02:28:06.089Z,9.5
2017-10-09T02:29:07.486Z,9.5
2017-10-09T02:30:29.022Z,9.5
2017-10-09T02:31:30.420Z,9.6
2017-10-09T02:32:51.990Z,9.5
2017-10-09T02:33:53.389Z,9.6
2017-10-09T02:35:14.924Z,9.6
2017-10-09T02:36:16.318Z,9.6
2017-10-09T02:37:37.891Z,9.7
2017-10-09T02:38:39.290Z,9.6
2017-10-09T02:40:01.258Z,9.7
2017-10-09T02:41:02.633Z,9.6
2017-10-09T02:42:24.231Z,9.6
2017-10-09T02:43:25.630Z,9.7
2017-10-09T02:44:47.136Z,9.6
2017-10-09T02:45:48.535Z,9.7
2017-10-09T02:47:10.108Z,9.6
2017-10-09T02:48:11.503Z,9.5
2017-10-09T02:49:33.043Z,9.5
2017-10-09T02:50:34.436Z,9.5
2017-10-09T02:51:56.521Z,9.5
2017-10-09T02:52:57.916Z,9.5
2017-10-09T02:54:19.453Z,9.4
2017-10-09T02:55:20.848Z,9.4
2017-10-09T02:56:42.445Z,9.4
2017-10-09T02:57:43.842Z,9.3
2017-10-09T02:59:05.352Z,9.3
2017-10-09T03:00:06.752Z,9.2
2017-10-09T03:01:28.303Z,9.2
2017-10-09T03:02:29.701Z,9.2
2017-10-09T03:03:51.274Z,9.2
2017-10-09T03:04:52.670Z,9.2
2017-10-09T03:06:14.205Z,9.2
2017-10-09T03:07:15.600Z,9.2
2017-10-09T03:08:37.175Z,9.1
2017-10-09T03:09:38.572Z,9.1
2017-10-09T03:11:00.108Z,9.1
2017-10-09T03:12:01.504Z,9.0
2017-10-09T03:13:23.077Z,8.9
2017-10-09T03:14:24.475Z,8.9
2017-10-09T03:15:46.011Z,8.9
2017-10-09T03:16:47.404Z,8.9
2017-10-09T03:18:08.978Z,8.9
2017-10-09T03:19:10.376Z,8.9
2017-10-09T03:20:31.911Z,8.8
2017-10-09T03:21:33.306Z,8.7
2017-10-09T03:22:55.393Z,8.7
2017-10-09T03:23:56.788Z,8.6
2017-10-09T03:25:18.324Z,8.7
2017-10-09T03:26:19.720Z,8.7
2017-10-09T03:27:51.232Z,8.7
2017-10-09T03:28:52.630Z,8.7
2017-10-09T03:30:14.116Z,8.7
2017-10-09T03:31:15.513Z,8.7
2017-10-09T03:32:37.012Z,8.7
2017-10-09T03:33:38.411Z,8.7
2017-10-09T03:34:59.893Z,8.7
2017-10-09T03:36:01.291Z,8.6
2017-10-09T03:37:22.794Z,8.7
2017-10-09T03:38:24.193Z,8.7
2017-10-09T03:39:45.675Z,8.7
2017-10-09T03:40:47.072Z,8.7
2017-10-09T03:42:08.592Z,8.7
2017-10-09T03:43:09.987Z,8.7
2017-10-09T03:44:31.470Z,8.6
2017-10-09T03:45:32.866Z,8.7
2017-10-09T03:46:54.351Z,8.7
2017-10-09T03:47:55.747Z,8.7
2017-10-09T03:49:29.043Z,8.7
2017-10-09T03:50:30.439Z,8.7
2017-10-09T03:51:51.924Z,8.7
2017-10-09T03:52:53.321Z,8.7
2017-10-09T03:54:14.826Z,8.7
2017-10-09T03:55:16.223Z,8.7
2017-10-09T03:56:37.707Z,8.7
2017-10-09T03:57:39.103Z,8.6
2017-10-09T03:59:00.606Z,8.7
2017-10-09T04:00:02.004Z,8.5
2017-10-09T04:01:23.491Z,8.6
2017-10-09T04:02:24.931Z,8.6
2017-10-09T04:03:46.440Z,8.7
2017-10-09T04:04:47.835Z,8.5
2017-10-09T04:06:09.319Z,8.6
2017-10-09T04:07:10.713Z,8.5
2017-10-09T04:08:32.214Z,8.6
2017-10-09T04:09:33.611Z,8.4
2017-10-09T04:10:55.093Z,8.5
2017-10-09T04:11:56.490Z,8.6
2017-10-09T04:13:17.992Z,8.6
2017-10-09T04:14:19.390Z,8.5
2017-10-09T04:15:40.898Z,8.5
2017-10-09T04:16:42.326Z,8.4
2017-10-09T04:18:08.117Z,8.3
2017-10-09T04:19:09.521Z,8.4
2017-10-09T04:20:31.148Z,8.3
2017-10-09T04:21:32.632Z,8.3
2017-10-09T04:22:54.315Z,8.3
2017-10-09T04:23:55.854Z,8.3
2017-10-09T04:25:17.625Z,8.2
2017-10-09T04:26:19.585Z,8.2
2017-10-09T04:27:41.573Z,8.2
2017-10-09T04:28:43.190Z,8.3
2017-10-09T04:30:05.149Z,8.2
2017-10-09T04:31:06.527Z,8.3
2017-10-09T04:32:28.013Z,8.3
2017-10-09T04:33:30.265Z,8.2
2017-10-09T04:34:51.772Z,8.3
2017-10-09T04:35:53.171Z,8.2
2017-10-09T04:37:14.649Z,8.2
2017-10-09T04:38:16.049Z,8.2
2017-10-09T04:39:37.553Z,8.2
2017-10-09T04:40:38.954Z,8.3
2017-10-09T04:42:00.433Z,8.2
2017-10-09T04:43:01.831Z,8.2
2017-10-09T04:44:23.333Z,8.2
2017-10-09T04:45:24.729Z,8.2
2017-10-09T04:46:46.213Z,8.2
2017-10-09T04:47:47.609Z,8.2
2017-10-09T04:49:09.113Z,8.2
2017-10-09T04:50:10.510Z,8.2
2017-10-09T04:51:32.007Z,8.3
2017-10-09T04:52:33.403Z,8.2
2017-10-09T04:53:54.908Z,8.2
2017-10-09T04:54:56.306Z,8.2
2017-10-09T04:56:17.794Z,8.2
2017-10-09T04:57:19.191Z,8.2
2017-10-09T04:58:40.696Z,8.2
2017-10-09T04:59:42.093Z,8.2
2017-10-09T05:01:03.591Z,8.3
2017-10-09T05:02:04.985Z,8.3
2017-10-09T05:03:26.487Z,8.3
2017-10-09T05:04:27.885Z,8.3
2017-10-09T05:05:49.365Z,8.4
2017-10-09T05:06:50.763Z,8.1
2017-10-09T05:08:12.267Z,8.3
2017-10-09T05:09:13.664Z,8.3
2017-10-09T05:10:35.145Z,8.3
2017-10-09T05:11:36.543Z,8.3
2017-10-09T05:12:58.050Z,8.5
2017-10-09T05:13:59.446Z,8.5
2017-10-09T05:15:20.946Z,8.4
2017-10-09T05:16:22.342Z,8.4
2017-10-09T05:17:43.828Z,8.4
2017-10-09T05:18:45.224Z,8.3
2017-10-09T05:20:06.727Z,8.4
2017-10-09T05:21:08.124Z,8.4
2017-10-09T05:22:29.604Z,8.4
2017-10-09T05:23:31.002Z,8.4
2017-10-09T05:24:52.506Z,8.4
2017-10-09T05:25:53.905Z,8.3
2017-10-09T05:27:15.388Z,8.3
2017-10-09T05:28:16.786Z,8.2
2017-10-09T05:29:38.295Z,8.2
2017-10-09T05:30:39.693Z,8.2
2017-10-09T05:32:01.181Z,8.1
2017-10-09T05:33:02.576Z,8.2
2017-10-09T05:34:24.083Z,8.1
2017-10-09T05:35:25.482Z,8.2
2017-10-09T05:36:46.967Z,8.2
2017-10-09T05:37:48.367Z,8.1
2017-10-09T05:39:09.876Z,8.1
2017-10-09T05:40:11.274Z,8.1
2017-10-09T05:41:32.767Z,8.1
2017-10-09T05:42:34.164Z,8.1
2017-10-09T05:43:55.670Z,8.1
2017-10-09T05:44:57.069Z,8.0
2017-10-09T05:46:18.558Z,8.1
2017-10-09T05:47:19.955Z,8.0
2017-10-09T05:48:41.461Z,8.0
2017-10-09T05:49:42.861Z,8.1
2017-10-09T05:51:04.377Z,8.0
2017-10-09T05:52:05.776Z,7.9
2017-10-09T05:53:27.287Z,8.0
2017-10-09T05:54:28.686Z,8.0
2017-10-09T05:55:50.177Z,8.1
2017-10-09T05:56:51.576Z,8.2
2017-10-09T05:58:13.067Z,8.2
2017-10-09T05:59:14.466Z,8.2
2017-10-09T06:00:35.977Z,8.2
2017-10-09T06:01:37.381Z,8.2
2017-10-09T06:02:58.869Z,8.3
2017-10-09T06:04:00.266Z,8.3
2017-10-09T06:05:21.780Z,8.3
2017-10-09T06:06:23.179Z,8.3
2017-10-09T06:07:44.669Z,8.3
2017-10-09T06:08:46.068Z,8.2
2017-10-09T06:10:07.584Z,8.2
2017-10-09T06:11:08.985Z,8.2
2017-10-09T06:12:30.478Z,8.3
2017-10-09T06:13:31.878Z,8.4
2017-10-09T06:14:53.388Z,8.3
2017-10-09T06:15:54.793Z,8.4
2017-10-09T06:17:16.287Z,8.4
2017-10-09T06:18:17.693Z,8.4
2017-10-09T06:19:39.198Z,8.4
2017-10-09T06:20:40.598Z,8.5
2017-10-09T06:22:02.097Z,8.5
2017-10-09T06:23:03.495Z,8.6
2017-10-09T06:24:25.001Z,8.6
2017-10-09T06:25:26.405Z,8.7
2017-10-09T06:26:47.898Z,8.7
2017-10-09T06:27:49.297Z,8.7
2017-10-09T06:29:10.810Z,8.7
2017-10-09T06:30:12.210Z,8.8
2017-10-09T06:31:33.707Z,8.9
2017-10-09T06:32:35.106Z,9.0
2017-10-09T06:33:56.616Z,9.1
2017-10-09T06:34:58.021Z,9.1
2017-10-09T06:36:19.518Z,9.2
2017-10-09T06:37:20.918Z,9.4
2017-10-09T06:38:42.408Z,9.4
2017-10-09T06:39:43.806Z,9.5
2017-10-09T06:41:05.316Z,9.5
2017-10-09T06:42:06.720Z,9.5
2017-10-09T06:43:28.212Z,9.6
2017-10-09T06:44:29.615Z,9.6
2017-10-09T06:45:51.130Z,9.6
2017-10-09T06:46:52.532Z,9.6
2017-10-09T06:48:14.027Z,9.8
2017-10-09T06:49:15.429Z,9.8
2017-10-09T06:50:37.433Z,9.8
2017-10-09T06:51:38.838Z,9.9
2017-10-09T06:53:00.330Z,9.9
2017-10-09T06:54:01.732Z,10.0
2017-10-09T06:55:23.243Z,9.9
2017-10-09T06:56:24.648Z,10.0
2017-10-09T06:57:46.146Z,10.0
2017-10-09T06:58:47.545Z,9.9
2017-10-09T07:00:09.060Z,9.9
2017-10-09T07:01:10.464Z,10.0
2017-10-09T07:02:31.956Z,10.0
2017-10-09T07:03:33.360Z,9.9
2017-10-09T07:04:54.870Z,10.1
2017-10-09T07:05:56.276Z,10.0
2017-10-09T07:07:17.774Z,10.1
2017-10-09T07:08:19.175Z,10.0
2017-10-09T07:09:40.688Z,10.1
2017-10-09T07:10:42.093Z,10.1
2017-10-09T07:12:03.588Z,10.1
2017-10-09T07:13:04.992Z,10.1
2017-10-09T07:14:26.512Z,10.2
2017-10-09T07:15:27.916Z,10.2
2017-10-09T07:16:49.906Z,10.3
2017-10-09T07:17:51.309Z,10.3
2017-10-09T07:19:12.825Z,10.3
2017-10-09T07:20:14.229Z,10.3
2017-10-09T07:21:35.724Z,10.4
2017-10-09T07:22:37.128Z,10.4
2017-10-09T07:23:58.623Z,10.4
2017-10-09T07:25:00.028Z,10.5
2017-10-09T07:26:21.541Z,10.6
2017-10-09T07:27:22.944Z,10.6
2017-10-09T07:28:44.443Z,10.6
2017-10-09T07:29:45.847Z,10.6
2017-10-09T07:31:07.363Z,10.7
2017-10-09T07:32:08.769Z,10.8
2017-10-09T07:33:30.262Z,10.8
2017-10-09T07:34:31.666Z,11.0
2017-10-09T07:35:53.183Z,10.9
2017-10-09T07:36:54.587Z,10.8
2017-10-09T07:38:16.084Z,10.9
2017-10-09T07:39:17.488Z,10.9
2017-10-09T07:40:39.002Z,10.7
2017-10-09T07:41:40.407Z,10.8
2017-10-09T07:43:01.909Z,10.8
2017-10-09T07:44:03.314Z,10.9
2017-10-09T07:45:24.828Z,10.9
2017-10-09T07:46:26.233Z,10.9
2017-10-09T07:47:47.733Z,10.8
2017-10-09T07:48:49.137Z,10.8
2017-10-09T07:50:10.654Z,10.9
2017-10-09T07:51:12.057Z,10.9
2017-10-09T07:52:33.551Z,10.8
2017-10-09T07:53:34.955Z,10.9
2017-10-09T07:54:56.472Z,10.9
2017-10-09T07:55:57.875Z,11.0
2017-10-09T07:57:19.372Z,11.0
2017-10-09T07:58:20.779Z,11.0
2017-10-09T07:59:42.293Z,11.1
2017-10-09T08:00:43.700Z,11.2
2017-10-09T08:02:05.685Z,11.2
2017-10-09T08:03:07.089Z,11.3
2017-10-09T08:04:28.588Z,11.3
2017-10-09T08:05:29.993Z,11.4
2017-10-09T08:06:51.507Z,11.4
2017-10-09T08:07:52.913Z,11.5
2017-10-09T08:09:14.410Z,11.6
2017-10-09T08:10:15.817Z,11.7
2017-10-09T08:11:37.337Z,11.9
2017-10-09T08:12:38.742Z,11.9
2017-10-09T08:14:00.241Z,11.9
2017-10-09T08:15:01.648Z,11.8
2017-10-09T08:16:23.160Z,11.9
2017-10-09T08:17:24.566Z,12.0
2017-10-09T08:18:46.061Z,12.1
2017-10-09T08:19:47.465Z,12.2
2017-10-09T08:21:08.984Z,12.3
2017-10-09T08:22:10.386Z,12.3
2017-10-09T08:23:31.886Z,12.3
2017-10-09T08:24:33.293Z,12.3
2017-10-09T08:25:54.806Z,12.4
2017-10-09T08:26:56.212Z,12.5
2017-10-09T08:28:17.709Z,12.4
2017-10-09T08:29:19.115Z,12.6
2017-10-09T08:30:40.631Z,12.7
2017-10-09T08:31:42.036Z,12.7
2017-10-09T08:33:03.535Z,12.7
2017-10-09T08:34:04.939Z,12.7
2017-10-09T08:35:26.457Z,12.8
2017-10-09T08:36:27.863Z,12.8
2017-10-09T08:37:49.369Z,12.9
2017-10-09T08:38:50.776Z,12.9
2017-10-09T08:40:12.295Z,12.9
2017-10-09T08:41:13.699Z,13.0
2017-10-09T08:42:35.201Z,13.0
2017-10-09T08:43:36.606Z,13.1
2017-10-09T08:44:58.123Z,13.3
2017-10-09T08:45:59.530Z,13.2
2017-10-09T08:47:21.046Z,13.3
2017-10-09T08:48:22.453Z,13.3
2017-10-09T08:49:43.953Z,13.5
2017-10-09T08:50:45.358Z,13.5
2017-10-09T08:52:06.877Z,13.7
2017-10-09T08:53:08.284Z,13.6
2017-10-09T08:54:29.787Z,13.7
2017-10-09T08:55:31.189Z,13.6
2017-10-09T08:56:52.716Z,13.8
2017-10-09T08:57:54.120Z,13.8
2017-10-09T08:59:15.620Z,13.9
2017-10-09T09:00:17.029Z,13.9
2017-10-09T09:01:39.544Z,14.0
2017-10-09T09:02:40.952Z,13.9
2017-10-09T09:04:02.456Z,13.9
2017-10-09T09:05:03.861Z,14.0
2017-10-09T09:06:25.378Z,13.9
2017-10-09T09:07:26.787Z,14.0
2017-10-09T09:08:48.286Z,14.0
2017-10-09T09:09:49.696Z,14.0
2017-10-09T09:11:11.215Z,13.9
2017-10-09T09:12:12.621Z,14.1
2017-10-09T09:13:34.121Z,14.0
2017-10-09T09:14:35.527Z,14.0
2017-10-09T09:15:57.045Z,14.2
2017-10-09T09:16:58.452Z,14.3
2017-10-09T09:18:19.949Z,14.3
2017-10-09T09:19:21.356Z,14.3
2017-10-09T09:20:42.874Z,14.4
2017-10-09T09:21:44.283Z,14.4
2017-10-09T09:23:05.782Z,14.4
2017-10-09T09:24:07.191Z,14.6
2017-10-09T09:25:28.715Z,14.7
2017-10-09T09:26:30.118Z,14.7
2017-10-09T09:27:51.620Z,14.9
2017-10-09T09:28:53.027Z,14.8
2017-10-09T09:30:14.530Z,14.9
2017-10-09T09:31:15.934Z,14.8
2017-10-09T09:32:37.454Z,14.9
2017-10-09T09:33:38.863Z,15.1
2017-10-09T09:35:00.369Z,15.1
2017-10-09T09:36:01.776Z,15.2
2017-10-09T09:37:23.295Z,15.2
2017-10-09T09:38:24.705Z,15.1
2017-10-09T09:39:46.206Z,15.2
2017-10-09T09:40:47.615Z,15.2
2017-10-09T09:42:09.626Z,14.9
2017-10-09T09:43:11.034Z,14.9
2017-10-09T09:44:32.535Z,15.0
2017-10-09T09:45:33.943Z,14.9
2017-10-09T09:46:55.954Z,15.0
2017-10-09T09:47:57.365Z,14.9
2017-10-09T09:49:18.863Z,15.1
2017-10-09T09:50:20.271Z,15.1
2017-10-09T09:51:41.788Z,14.9
2017-10-09T09:52:43.202Z,15.1
2017-10-09T09:54:05.198Z,15.0
2017-10-09T09:55:06.604Z,15.0
2017-10-09T09:56:28.122Z,15.1
2017-10-09T09:57:29.537Z,15.0
2017-10-09T09:58:51.038Z,15.2
2017-10-09T09:59:52.445Z,15.1
2017-10-09T10:01:13.962Z,15.2
2017-10-09T10:02:15.372Z,15.1
2017-10-09T10:03:36.870Z,15.2
2017-10-09T10:04:38.279Z,15.2
2017-10-09T10:05:59.801Z,15.3
2017-10-09T10:07:01.209Z,15.2
2017-10-09T10:08:22.713Z,15.3
2017-10-09T10:09:24.120Z,15.5
2017-10-09T10:10:45.626Z,15.3
2017-10-09T10:11:47.037Z,15.4
2017-10-09T10:13:08.555Z,15.5
2017-10-09T10:14:09.963Z,15.4
2017-10-09T10:15:31.466Z,15.5
2017-10-09T10:16:32.871Z,15.5
2017-10-09T10:17:54.393Z,15.4
2017-10-09T10:18:55.800Z,15.4
2017-10-09T10:20:17.309Z,15.6
2017-10-09T10:21:18.711Z,15.6
2017-10-09T10:22:40.231Z,15.5
2017-10-09T10:23:41.641Z,15.5
2017-10-09T10:25:03.169Z,15.5
2017-10-09T10:26:04.550Z,15.6
2017-10-09T10:27:26.071Z,15.7
2017-10-09T10:28:27.479Z,15.8
2017-10-09T10:29:48.985Z,15.9
2017-10-09T10:30:50.395Z,16.0
2017-10-09T10:32:11.914Z,16.1
2017-10-09T10:33:13.325Z,16.1
2017-10-09T10:34:34.827Z,16.0
2017-10-09T10:35:36.240Z,16.1
2017-10-09T10:36:57.761Z,15.9
2017-10-09T10:37:59.171Z,16.1
2017-10-09T10:39:20.677Z,16.2
2017-10-09T10:40:22.085Z,16.3
2017-10-09T10:41:43.605Z,16.4
2017-10-09T10:42:45.016Z,16.4
2017-10-09T10:44:06.516Z,16.4
2017-10-09T10:45:07.926Z,16.4
2017-10-09T10:46:29.451Z,16.3
2017-10-09T10:47:30.860Z,16.3
2017-10-09T10:48:52.854Z,16.1
2017-10-09T10:49:54.263Z,16.1
2017-10-09T10:51:15.782Z,16.0
2017-10-09T10:52:17.193Z,16.0
2017-10-09T10:53:38.699Z,15.9
2017-10-09T10:54:40.107Z,15.6
2017-10-09T10:56:01.612Z,15.7
2017-10-09T10:57:03.024Z,15.6
2017-10-09T10:58:24.546Z,15.5
2017-10-09T10:59:25.955Z,15.5
2017-10-09T11:00:47.458Z,15.4
2017-10-09T11:01:48.866Z,15.4
2017-10-09T11:03:10.388Z,15.5
2017-10-09T11:04:11.797Z,15.4
2017-10-09T11:05:33.790Z,15.6
2017-10-09T11:06:35.205Z,15.7
2017-10-09T11:07:57.226Z,15.7
2017-10-09T11:08:58.638Z,15.8
2017-10-09T11:10:20.166Z,15.9
2017-10-09T11:11:21.575Z,16.0
2017-10-09T11:12:43.138Z,16.0
2017-10-09T11:13:44.548Z,16.1
2017-10-09T11:15:06.579Z,16.0
2017-10-09T11:16:07.988Z,16.1
2017-10-09T11:17:30.064Z,16.2
2017-10-09T11:18:31.473Z,16.2
2017-10-09T11:19:52.995Z,16.3
2017-10-09T11:20:54.403Z,16.3
2017-10-09T11:22:15.927Z,16.3
2017-10-09T11:23:17.335Z,16.3
2017-10-09T11:24:39.405Z,16.3
2017-10-09T11:25:40.815Z,16.3
2017-10-09T11:27:02.380Z,16.2
2017-10-09T11:28:03.792Z,16.1
2017-10-09T11:29:25.312Z,15.8
2017-10-09T11:30:26.722Z,15.8
2017-10-09T11:31:48.279Z,15.7
2017-10-09T11:32:49.690Z,15.7
2017-10-09T11:34:11.688Z,15.7
2017-10-09T11:35:13.096Z,15.7
2017-10-09T11:36:34.671Z,15.6
2017-10-09T11:37:36.078Z,15.6
2017-10-09T11:38:57.647Z,15.7
2017-10-09T11:39:59.054Z,15.6
2017-10-09T11:41:20.573Z,15.7
2017-10-09T11:42:21.985Z,15.7
2017-10-09T11:43:43.545Z,15.8
2017-10-09T11:44:44.956Z,16.0
2017-10-09T11:46:06.481Z,15.9
2017-10-09T11:47:07.888Z,16.1
2017-10-09T11:48:29.446Z,16.1
2017-10-09T11:49:30.857Z,16.1
2017-10-09T11:50:52.893Z,16.1
2017-10-09T11:51:54.311Z,16.1
2017-10-09T11:53:16.368Z,16.2
2017-10-09T11:54:17.782Z,16.2
2017-10-09T11:55:39.823Z,16.2
2017-10-09T11:56:41.234Z,16.2
2017-10-09T11:58:03.298Z,16.2
2017-10-09T11:59:04.708Z,16.2
2017-10-09T12:00:26.230Z,16.1
2017-10-09T12:01:27.642Z,16.3
2017-10-09T12:02:49.720Z,16.4
2017-10-09T12:03:51.125Z,16.4
2017-10-09T12:05:13.158Z,16.4
2017-10-09T12:06:14.570Z,16.5
2017-10-09T12:07:36.637Z,16.5
2017-10-09T12:08:38.063Z,16.4
2017-10-09T12:10:00.193Z,16.5
2017-10-09T12:11:01.605Z,16.4
2017-10-09T12:12:23.665Z,16.6
2017-10-09T12:13:25.075Z,16.5
2017-10-09T12:14:46.592Z,16.4
2017-10-09T12:15:48.011Z,16.3
2017-10-09T12:17:09.590Z,16.3
2017-10-09T12:18:10.978Z,16.3
2017-10-09T12:19:32.501Z,16.3
2017-10-09T12:20:33.915Z,16.4
2017-10-09T12:21:55.451Z,16.4
2017-10-09T12:22:56.866Z,16.4
2017-10-09T12:24:18.419Z,16.3
2017-10-09T12:25:19.829Z,16.4
2017-10-09T12:26:41.352Z,16.4
2017-10-09T12:27:42.761Z,16.5
2017-10-09T12:29:04.321Z,16.4
2017-10-09T12:30:05.733Z,16.6
2017-10-09T12:31:27.255Z,16.8
2017-10-09T12:32:28.665Z,16.8
2017-10-09T12:33:50.738Z,16.7
2017-10-09T12:34:52.148Z,16.6
2017-10-09T12:36:14.180Z,16.8
2017-10-09T12:37:15.589Z,16.7
2017-10-09T12:38:37.147Z,16.7
2017-10-09T12:39:38.582Z,16.6
2017-10-09T12:41:00.086Z,16.7
2017-10-09T12:42:01.492Z,16.5
2017-10-09T12:43:23.049Z,16.5
2017-10-09T12:44:24.466Z,16.4
2017-10-09T12:45:45.984Z,16.5
2017-10-09T12:46:47.393Z,16.4
2017-10-09T12:48:08.964Z,16.4
2017-10-09T12:49:10.372Z,16.5
2017-10-09T12:50:31.987Z,16.4
2017-10-09T12:51:33.395Z,16.4
2017-10-09T12:52:55.465Z,16.3
2017-10-09T12:53:56.879Z,16.3
2017-10-09T12:55:18.404Z,16.3
2017-10-09T12:56:19.811Z,16.4
2017-10-09T12:57:41.368Z,16.3
2017-10-09T12:58:42.781Z,16.4
2017-10-09T13:00:04.811Z,16.3
2017-10-09T13:01:06.223Z,16.3
2017-10-09T13:02:27.803Z,16.5
2017-10-09T13:03:29.212Z,16.6
2017-10-09T13:04:50.817Z,16.6
2017-10-09T13:05:52.224Z,16.6
2017-10-09T13:07:13.768Z,16.7
2017-10-09T13:08:15.181Z,16.6
2017-10-09T13:09:36.740Z,16.6
2017-10-09T13:10:38.150Z,16.6
2017-10-09T13:11:59.668Z,16.7
2017-10-09T13:13:01.079Z,16.8
2017-10-09T13:14:22.697Z,16.8
2017-10-09T13:15:24.107Z,16.8
2017-10-09T13:16:45.674Z,16.9
2017-10-09T13:17:47.084Z,16.9
2017-10-09T13:19:08.647Z,16.9
2017-10-09T13:20:10.058Z,16.9
2017-10-09T13:21:31.576Z,16.9
2017-10-09T13:22:32.986Z,17.0
2017-10-09T13:23:54.546Z,16.8
2017-10-09T13:24:55.955Z,16.8
2017-10-09T13:26:17.505Z,16.8
2017-10-09T13:27:18.913Z,16.7
2017-10-09T13:28:40.439Z,16.7
2017-10-09T13:29:41.848Z,16.6
2017-10-09T13:31:03.354Z,16.6
2017-10-09T13:32:04.772Z,16.5
2017-10-09T13:33:26.285Z,16.6
2017-10-09T13:34:27.696Z,16.5
2017-10-09T13:35:49.199Z,16.3
2017-10-09T13:36:50.607Z,16.3
2017-10-09T13:38:12.130Z,16.3
2017-10-09T13:39:13.538Z,16.2
2017-10-09T13:40:35.040Z,16.2
2017-10-09T13:41:36.449Z,16.1
2017-10-09T13:42:57.974Z,16.2
2017-10-09T13:43:59.381Z,16.2
2017-10-09T13:45:20.884Z,16.2
2017-10-09T13:46:22.291Z,16.3
2017-10-09T13:47:43.795Z,16.2
2017-10-09T13:48:45.204Z,16.3
2017-10-09T13:50:06.724Z,16.3
2017-10-09T13:51:08.135Z,16.4
2017-10-09T13:52:29.639Z,16.4
2017-10-09T13:53:31.045Z,16.5
2017-10-09T13:54:52.569Z,16.5
2017-10-09T13:55:53.980Z,16.5
2017-10-09T13:57:15.481Z,16.6
2017-10-09T13:58:16.894Z,16.6
2017-10-09T13:59:38.414Z,16.5
2017-10-09T14:00:39.823Z,16.6
2017-10-09T14:02:01.326Z,16.5
2017-10-09T14:03:02.737Z,16.6
2017-10-09T14:04:24.257Z,16.5
2017-10-09T14:05:25.666Z,16.5
2017-10-09T14:06:47.167Z,16.4
2017-10-09T14:07:48.579Z,16.4
2017-10-09T14:09:10.102Z,16.3
2017-10-09T14:10:11.508Z,16.3
2017-10-09T14:11:33.504Z,16.3
2017-10-09T14:12:34.911Z,16.2
2017-10-09T14:13:56.941Z,16.4
2017-10-09T14:14:58.382Z,16.2
2017-10-09T14:16:19.905Z,16.2
2017-10-09T14:17:21.313Z,16.2
2017-10-09T14:18:42.830Z,16.2
2017-10-09T14:19:44.241Z,16.3
2017-10-09T14:21:06.265Z,16.4
2017-10-09T14:22:07.670Z,16.3
2017-10-09T14:23:29.696Z,16.3
2017-10-09T14:24:31.104Z,16.3
2017-10-09T14:25:52.612Z,16.4
2017-10-09T14:26:54.022Z,16.4
2017-10-09T14:28:16.042Z,16.4
2017-10-09T14:29:17.445Z,16.4
2017-10-09T14:30:38.951Z,16.5
2017-10-09T15:17:51.952Z,16.0
2017-10-09T15:21:22.359Z,15.8
2017-10-09T15:22:24.080Z,15.8
2017-10-09T15:23:45.825Z,15.8
2017-10-09T15:24:47.278Z,15.7
2017-10-09T15:26:08.846Z,15.6
2017-10-09T15:27:10.635Z,15.6
2017-10-09T15:28:32.723Z,15.6
2017-10-09T15:29:34.132Z,15.6
2017-10-09T15:30:57.230Z,15.6
2017-10-09T15:31:58.635Z,15.7
2017-10-09T15:33:20.168Z,15.7
2017-10-09T15:34:21.585Z,15.8
2017-10-09T15:35:43.125Z,15.8
2017-10-09T15:36:44.532Z,15.7
2017-10-09T15:38:07.610Z,15.7
2017-10-09T15:39:08.996Z,15.7
2017-10-09T15:40:31.078Z,15.7
2017-10-09T15:41:32.483Z,15.7
2017-10-09T15:42:54.006Z,15.8
2017-10-09T15:43:55.412Z,15.7
2017-10-09T15:45:16.980Z,15.8
2017-10-09T15:46:18.385Z,15.7
2017-10-09T15:47:39.906Z,15.7
2017-10-09T15:48:41.313Z,15.8
2017-10-09T15:50:02.885Z,15.8
2017-10-09T15:51:04.293Z,15.9
2017-10-09T15:52:25.809Z,15.8
2017-10-09T15:53:27.216Z,15.8
2017-10-09T15:54:48.905Z,15.8
2017-10-09T15:55:50.397Z,15.7
2017-10-09T15:57:11.815Z,15.8
2017-10-09T15:58:13.222Z,15.9
2017-10-09T15:59:34.787Z,15.8
2017-10-09T16:00:36.203Z,15.8
2017-10-09T16:01:58.237Z,15.9
2017-10-09T16:02:59.646Z,15.9
2017-10-09T16:04:21.199Z,16.0
2017-10-09T16:05:22.607Z,16.0
2017-10-09T16:06:44.129Z,16.0
2017-10-09T16:07:45.534Z,16.0
2017-10-09T16:09:07.103Z,15.9
2017-10-09T16:10:08.508Z,15.9
2017-10-09T16:11:30.030Z,15.8
2017-10-09T16:12:31.437Z,15.9
2017-10-09T16:13:52.979Z,15.9
2017-10-09T16:14:54.388Z,15.8
2017-10-09T16:16:16.465Z,15.8
2017-10-09T16:17:17.878Z,15.7
2017-10-09T16:18:39.393Z,15.8
2017-10-09T16:19:40.800Z,15.8
2017-10-09T16:21:02.366Z,15.8
2017-10-09T16:22:03.770Z,15.8
2017-10-09T16:23:25.295Z,15.8
2017-10-09T16:24:26.724Z,15.8
2017-10-09T16:25:48.269Z,15.7
2017-10-09T16:26:49.672Z,15.8
2017-10-09T16:28:11.194Z,15.7
2017-10-09T16:29:12.606Z,15.8
2017-10-09T16:30:34.681Z,15.9
2017-10-09T16:31:36.112Z,15.8
2017-10-09T16:32:57.877Z,15.7
2017-10-09T16:33:59.369Z,15.7
2017-10-09T16:35:21.268Z,15.8
2017-10-09T16:36:22.677Z,15.8
2017-10-09T16:37:45.764Z,15.7
2017-10-09T16:38:47.192Z,15.7
2017-10-09T16:40:09.249Z,15.7
2017-10-09T16:41:10.676Z,15.6
2017-10-09T16:42:36.121Z,15.6
2017-10-09T16:43:37.525Z,15.6
2017-10-09T16:44:59.143Z,15.6
2017-10-09T16:46:00.546Z,15.6
2017-10-09T16:47:22.071Z,15.6
2017-10-09T16:48:23.474Z,15.6
2017-10-09T16:49:45.558Z,15.6
2017-10-09T16:50:46.962Z,15.6
2017-10-09T16:52:08.996Z,15.5
2017-10-09T16:53:10.398Z,15.5
2017-10-09T16:54:32.487Z,15.5